Time;durP1;ratioP1;P1;durP2;ratioP2;P2;SDS_P1;SDS_P2;PMS_P1;PMS_P2;Temp;Humidity;BMP_temperature;BMP_pressure;BME280_temperature;BME280_humidity;BME280_pressure;Samples;Min_cycle;Max_cycle;Signal;HPM_P1;HPM_P2
2022/12/22 03:28:05;;;;;;;99.22;48.90;;;;;;;-2.38;87.89;99800.03;5074619;28;20108;-71
2022/12/22 03:30:30;;;;;;;109.22;53.42;;;;;;;-2.27;86.96;99797.25;5074343;28;20111;-71
2022/12/22 03:32:55;;;;;;;77.35;40.95;;;;;;;-2.14;86.54;99792.56;5074635;28;20183;-71
2022/12/22 03:35:21;;;;;;;79.68;39.88;;;;;;;-2.70;85.78;99793.84;5093284;28;20024;-71
2022/12/22 03:37:46;;;;;;;80.28;39.15;;;;;;;-2.96;87.57;99797.88;5090917;28;20467;-71
2022/12/22 03:40:12;;;;;;;78.45;41.22;;;;;;;-2.58;87.06;99795.75;5072953;28;20020;-71
2022/12/22 03:48:06;;;;;;;72.43;37.88;;;;;;;-2.26;85.59;99789.88;5074103;28;20514;-72
2022/12/22 03:50:31;;;;;;;77.35;38.88;;;;;;;-2.70;85.17;99790.28;5077770;28;20028;-72
2022/12/22 03:52:57;;;;;;;88.85;45.72;;;;;;;-2.97;86.95;99790.75;5074080;28;20028;-71
2022/12/22 03:55:22;;;;;;;104.30;47.72;;;;;;;-2.84;87.17;99790.50;5073099;28;20190;-71
2022/12/22 03:57:48;;;;;;;89.80;43.58;;;;;;;-2.48;86.74;99792.38;5078168;28;20073;-71
2022/12/22 04:00:14;;;;;;;92.55;44.95;;;;;;;-2.41;86.15;99793.94;5072631;28;20021;-71
2022/12/22 04:02:39;;;;;;;80.63;41.28;;;;;;;-2.68;86.80;99783.47;5077193;28;20032;-71
2022/12/22 04:05:05;;;;;;;81.28;40.03;;;;;;;-2.60;86.42;99789.69;5090437;28;20024;-71
2022/12/22 04:07:31;;;;;;;85.05;39.50;;;;;;;-2.60;86.32;99784.22;5093913;28;20415;-71
2022/12/22 04:12:55;;;;;;;77.00;37.38;;;;;;;-3.31;89.91;99774.91;5089575;28;20032;-72
2022/12/22 04:15:29;;;;;;;67.05;36.72;;;;;;;-2.88;89.11;99778.38;5091611;28;20040;-71
2022/12/22 04:17:55;;;;;;;69.60;37.92;;;;;;;-2.54;88.34;99783.22;5078020;28;20079;-71
2022/12/22 04:20:25;;;;;;;76.88;39.17;;;;;;;-2.38;87.77;99780.84;5093775;28;20020;-72
2022/12/22 04:22:51;;;;;;;86.75;42.22;;;;;;;-2.39;86.65;99782.72;5092497;28;20571;-73
2022/12/22 04:25:16;;;;;;;94.40;43.13;;;;;;;-2.97;86.69;99775.16;5093673;28;20027;-74
2022/12/22 04:27:42;;;;;;;87.15;42.80;;;;;;;-3.18;88.25;99770.28;5092288;28;20024;-74
2022/12/22 04:30:08;;;;;;;79.55;40.30;;;;;;;-3.11;87.74;99782.78;5086355;28;20029;-74
2022/12/22 04:32:34;;;;;;;93.60;44.85;;;;;;;-3.09;87.46;99782.53;5078832;28;20414;-74
2022/12/22 04:34:59;;;;;;;92.47;44.38;;;;;;;-3.24;88.11;99783.00;5093505;28;20016;-73
2022/12/22 04:37:25;;;;;;;91.03;41.88;;;;;;;-3.67;89.25;99772.09;5093419;28;20028;-73
2022/12/22 04:39:50;;;;;;;87.60;41.22;;;;;;;-3.76;90.62;99775.38;5092128;28;20521;-73
2022/12/22 04:42:16;;;;;;;84.43;44.85;;;;;;;-3.92;91.30;99774.13;5088059;28;20020;-74
2022/12/22 04:44:41;;;;;;;97.65;49.53;;;;;;;-3.83;91.71;99779.06;5084581;28;20086;-75
2022/12/22 04:47:06;;;;;;;93.97;42.88;;;;;;;-3.41;91.00;99777.38;5084408;28;20020;-74
2022/12/22 04:49:32;;;;;;;132.77;59.38;;;;;;;-3.28;91.11;99779.91;5072985;28;20027;-74
2022/12/22 04:51:58;;;;;;;98.20;47.83;;;;;;;-3.01;90.52;99786.84;5071873;28;20060;-74
2022/12/22 04:54:23;;;;;;;125.03;66.68;;;;;;;-2.90;89.19;99788.75;5072864;28;20029;-74
2022/12/22 04:56:52;;;;;;;99.22;51.53;;;;;;;-2.74;88.20;99791.81;5073279;28;20475;-74
2022/12/22 04:59:17;;;;;;;81.78;41.47;;;;;;;-2.69;86.74;99792.78;5091097;28;20066;-74
2022/12/22 05:01:43;;;;;;;96.25;43.88;;;;;;;-2.67;85.52;99789.81;5082855;28;20491;-74
2022/12/22 05:04:08;;;;;;;78.15;39.42;;;;;;;-2.70;84.71;99788.38;5072745;28;20028;-74
2022/12/22 05:06:34;;;;;;;138.57;77.22;;;;;;;-3.15;85.28;99791.69;5072640;28;20074;-74
2022/12/22 05:08:59;;;;;;;133.48;68.07;;;;;;;-3.42;87.04;99786.66;5072426;28;20024;-75
2022/12/22 05:11:25;;;;;;;115.70;56.90;;;;;;;-3.67;88.83;99783.03;5071180;28;20082;-75
2022/12/22 05:13:50;;;;;;;90.00;48.30;;;;;;;-3.93;91.65;99783.41;5089293;28;20478;-75
2022/12/22 05:16:15;;;;;;;89.85;46.78;;;;;;;-3.84;91.91;99782.00;5082260;28;20076;-74
2022/12/22 05:18:43;;;;;;;79.97;39.95;;;;;;;-4.10;93.51;99776.69;5072421;28;20023;-74
2022/12/22 05:21:10;;;;;;;84.60;45.78;;;;;;;-3.94;93.98;99774.38;5072339;28;20021;-74
2022/12/22 05:23:36;;;;;;;91.97;48.38;;;;;;;-3.70;92.99;99777.19;5072311;28;20028;-74
2022/12/22 05:26:01;;;;;;;118.25;55.65;;;;;;;-3.35;92.26;99781.06;5086416;28;20016;-74
2022/12/22 05:28:27;;;;;;;108.88;54.88;;;;;;;-3.20;91.14;99769.69;5092371;28;20471;-74
2022/12/22 05:30:53;;;;;;;106.85;54.58;;;;;;;-3.06;89.78;99776.59;5090437;28;20027;-74
2022/12/22 05:33:19;;;;;;;108.00;52.55;;;;;;;-3.31;87.64;99790.50;5091057;28;20016;-75
2022/12/22 05:35:45;;;;;;;91.63;44.33;;;;;;;-3.20;87.22;99780.63;5092406;28;20079;-74
2022/12/22 05:38:10;;;;;;;107.90;49.88;;;;;;;-3.01;86.99;99779.47;5092272;28;20084;-75
2022/12/22 05:40:36;;;;;;;102.20;51.75;;;;;;;-2.88;86.60;99781.13;5091494;28;20124;-74
2022/12/22 05:43:01;;;;;;;86.10;46.08;;;;;;;-3.13;85.15;99782.19;5091904;28;20081;-75
2022/12/22 05:45:27;;;;;;;85.82;42.58;;;;;;;-3.07;85.52;99777.66;5086208;28;20491;-75
2022/12/22 05:47:52;;;;;;;91.32;45.03;;;;;;;-2.90;85.02;99774.19;5090194;28;20020;-74
2022/12/22 05:50:23;;;;;;;102.93;50.65;;;;;;;-2.76;85.00;99775.66;5090490;28;20032;-75
2022/12/22 05:52:49;;;;;;;128.65;56.40;;;;;;;-3.25;85.37;99773.13;5086588;28;20048;-74
2022/12/22 05:55:15;;;;;;;133.68;62.85;;;;;;;-3.01;86.74;99773.16;5070503;28;20053;-74
2022/12/22 05:57:41;;;;;;;161.18;71.40;;;;;;;-2.72;86.08;99781.47;5085468;28;20514;-74
2022/12/22 06:00:11;;;;;;;187.20;79.53;;;;;;;-2.59;85.56;99783.13;5086714;28;20031;-75
2022/12/22 06:02:37;;;;;;;166.18;80.38;;;;;;;-2.49;84.93;99779.78;5083395;28;20395;-75
2022/12/22 06:05:02;;;;;;;217.82;107.00;;;;;;;-2.47;84.97;99778.47;5074935;28;20032;-73
2022/12/22 06:07:28;;;;;;;195.55;105.30;;;;;;;-2.37;84.14;99780.59;5071375;28;20082;-75
2022/12/22 06:09:53;;;;;;;238.48;128.68;;;;;;;-2.27;84.00;99767.09;5071846;28;20034;-75
2022/12/22 06:12:19;;;;;;;223.13;118.68;;;;;;;-2.31;83.98;99781.53;5070281;28;20461;-75
2022/12/22 06:14:44;;;;;;;260.85;135.98;;;;;;;-2.22;83.52;99777.34;5078960;28;20066;-74
2022/12/22 06:17:10;;;;;;;277.58;143.65;;;;;;;-2.12;83.15;99774.81;5074576;28;20036;-77
2022/12/22 06:19:35;;;;;;;236.13;128.55;;;;;;;-2.04;82.99;99781.81;5069663;28;20033;-74
2022/12/22 06:22:01;;;;;;;204.63;113.00;;;;;;;-2.06;82.36;99783.13;5070080;28;20059;-74
2022/12/22 06:24:26;;;;;;;311.00;151.63;;;;;;;-1.98;82.16;99785.47;5070180;28;20029;-75
2022/12/22 06:26:51;;;;;;;281.45;137.88;;;;;;;-1.91;82.28;99788.09;5082602;28;20039;-74
2022/12/22 06:29:17;;;;;;;247.27;136.82;;;;;;;-1.96;83.63;99788.00;5091282;28;20024;-74
2022/12/22 06:31:43;;;;;;;203.40;113.57;;;;;;;-1.93;83.34;99793.81;5080661;28;20028;-75
2022/12/22 06:34:09;;;;;;;183.88;98.57;;;;;;;-1.96;83.24;99798.97;5080091;28;20387;-75
2022/12/22 06:36:37;;;;;;;183.00;97.93;;;;;;;-1.69;81.94;99804.69;5089978;28;20406;-75
2022/12/22 06:39:03;;;;;;;208.43;105.32;;;;;;;-1.65;81.69;99800.38;5080193;28;20020;-75
2022/12/22 06:44:13;;;;;;;191.90;104.43;;;;;;;-1.33;80.92;99797.13;5071221;28;20074;-75
2022/12/22 06:46:38;;;;;;;206.52;115.22;;;;;;;-1.17;80.58;99797.38;5071253;28;20479;-75
2022/12/22 06:49:04;;;;;;;196.70;106.55;;;;;;;-1.07;80.55;99811.28;5079760;28;20131;-74
2022/12/22 06:51:29;;;;;;;195.40;105.55;;;;;;;-0.94;80.12;99807.34;5074283;28;20094;-74
2022/12/22 06:53:54;;;;;;;151.73;83.10;;;;;;;-0.78;79.49;99808.44;5070818;28;20499;-75
2022/12/22 06:56:20;;;;;;;142.52;79.40;;;;;;;-0.68;79.21;99806.91;5078917;28;20087;-74
2022/12/22 06:58:45;;;;;;;169.10;83.43;;;;;;;-0.58;78.97;99815.31;5079856;28;20043;-73
2022/12/22 07:01:11;;;;;;;143.45;76.60;;;;;;;-0.52;78.78;99807.97;5070878;28;20055;-75
2022/12/22 07:03:36;;;;;;;161.43;84.05;;;;;;;-0.33;77.76;99809.34;5069431;28;20039;-74
2022/12/22 07:06:03;;;;;;;140.05;71.25;;;;;;;-0.21;77.11;99811.13;5087615;28;20109;-74
2022/12/22 07:08:29;;;;;;;142.85;75.85;;;;;;;-0.20;77.23;99810.88;5085212;28;20036;-74
2022/12/22 07:10:57;;;;;;;119.70;63.58;;;;;;;-0.06;76.89;99813.25;5078447;28;20086;-73
2022/12/22 07:13:32;;;;;;;133.93;73.55;;;;;;;-0.04;76.07;99809.16;5089770;28;20456;-73
2022/12/22 07:15:59;;;;;;;126.68;65.47;;;;;;;0.04;75.85;99810.63;5085418;28;20511;-75
2022/12/22 07:18:25;;;;;;;139.80;77.57;;;;;;;0.12;76.12;99803.84;5071015;28;20492;-74
2022/12/22 07:20:52;;;;;;;118.00;65.18;;;;;;;0.25;75.90;99797.13;5069370;28;20496;-73
2022/12/22 07:23:17;;;;;;;115.88;62.67;;;;;;;0.37;75.78;99788.72;5071859;28;20034;-74
2022/12/22 07:25:43;;;;;;;121.80;63.38;;;;;;;0.22;76.07;99797.63;5071044;28;20025;-74
2022/12/22 07:28:08;;;;;;;135.77;70.25;;;;;;;0.41;75.90;99798.94;5069463;28;20465;-74
2022/12/22 07:30:35;;;;;;;134.02;67.38;;;;;;;0.39;75.86;99784.63;5078855;28;20016;-75
2022/12/22 07:33:02;;;;;;;98.75;46.70;;;;;;;0.24;76.56;99781.69;5080421;28;20479;-74
2022/12/22 07:35:28;;;;;;;81.05;42.67;;;;;;;0.21;76.90;99782.19;5078115;28;20103;-73
2022/12/22 07:37:54;;;;;;;74.85;38.92;;;;;;;-0.08;77.80;99793.44;5073618;28;20498;-72
2022/12/22 07:40:19;;;;;;;83.57;42.35;;;;;;;-0.45;79.95;99790.22;5088006;28;20046;-72
2022/12/22 07:42:44;;;;;;;82.95;40.00;;;;;;;-0.25;80.43;99799.00;5085519;28;20026;-73
2022/12/22 07:45:16;;;;;;;68.03;37.03;;;;;;;-0.49;80.72;99794.53;5076657;28;20304;-72
2022/12/22 07:47:42;;;;;;;64.63;34.88;;;;;;;-0.65;82.70;99792.66;5090210;28;20024;-73
2022/12/22 07:50:24;;;;;;;69.85;37.13;;;;;;;-0.15;82.52;99788.13;5081801;28;20020;-76
2022/12/22 07:52:55;;;;;;;71.82;37.72;;;;;;;0.44;80.28;99788.50;5087853;28;20637;-76
2022/12/22 07:55:21;;;;;;;69.32;35.72;;;;;;;0.50;78.36;99788.28;5101856;27;20035;-73
2022/12/22 07:57:47;;;;;;;58.17;31.85;;;;;;;0.73;77.56;99780.78;5080049;28;20147;-76
2022/12/22 08:00:13;;;;;;;73.57;35.53;;;;;;;1.03;76.71;99775.81;5084279;28;20122;-77
2022/12/22 08:02:39;;;;;;;77.28;35.72;;;;;;;1.22;75.23;99784.47;5082194;28;20392;-74
2022/12/22 08:05:06;;;;;;;73.47;37.60;;;;;;;1.40;74.91;99780.47;5070938;28;20111;-75
2022/12/22 08:07:34;;;;;;;63.15;34.60;;;;;;;1.46;74.08;99782.16;5072775;28;20051;-72
2022/12/22 08:10:00;;;;;;;76.05;38.35;;;;;;;1.67;73.64;99779.50;5083346;28;20076;-75
2022/12/22 08:12:26;;;;;;;93.72;49.63;;;;;;;1.76;73.32;99790.88;5088548;28;20032;-71
2022/12/22 08:14:52;;;;;;;78.45;37.95;;;;;;;1.76;73.33;99785.34;5087575;28;20028;-73
2022/12/22 08:17:17;;;;;;;54.17;31.23;;;;;;;1.91;73.41;99784.56;5089615;28;20512;-70
2022/12/22 08:19:43;;;;;;;58.10;33.30;;;;;;;1.99;73.99;99784.06;5086670;28;20254;-73
2022/12/22 08:22:08;;;;;;;59.42;33.83;;;;;;;2.00;75.63;99788.47;5076008;28;20020;-70
2022/12/22 08:24:34;;;;;;;55.15;30.30;;;;;;;1.58;75.72;99787.47;5078347;28;20020;-70
2022/12/22 08:27:10;;;;;;;86.10;51.63;;;;;;;1.80;75.93;99790.03;5074447;28;20071;-74
2022/12/22 08:29:44;;;;;;;120.88;66.68;;;;;;;2.03;74.74;99782.41;5082421;28;20113;-74
2022/12/22 08:32:10;;;;;;;67.32;37.53;;;;;;;1.90;74.98;99786.53;5081758;28;20028;-73
2022/12/22 08:34:36;;;;;;;214.60;140.02;;;;;;;1.85;74.66;99780.97;5077057;28;20040;-72
2022/12/22 08:37:06;;;;;;;84.47;53.58;;;;;;;1.86;74.60;99776.28;5079911;28;20020;-73
2022/12/22 08:39:38;;;;;;;59.67;34.45;;;;;;;1.95;74.50;99777.44;5085429;28;20380;-75
2022/12/22 08:42:05;;;;;;;84.90;51.72;;;;;;;2.13;74.42;99773.38;5089187;28;20445;-72
2022/12/22 08:44:31;;;;;;;65.35;38.40;;;;;;;2.05;75.05;99771.13;5090590;28;20027;-75
2022/12/22 08:46:58;;;;;;;74.78;42.13;;;;;;;1.89;75.84;99773.81;5079943;28;20137;-75
2022/12/22 08:49:25;;;;;;;62.17;34.20;;;;;;;1.92;76.15;99776.03;5080981;28;20040;-76
2022/12/22 08:51:52;;;;;;;63.67;36.70;;;;;;;2.14;75.79;99763.13;5069780;28;20036;-74
2022/12/22 08:54:17;;;;;;;55.90;29.77;;;;;;;2.36;74.39;99754.66;5070271;28;20055;-77
2022/12/22 08:56:44;;;;;;;53.75;29.10;;;;;;;1.76;76.57;99752.25;5075441;28;20127;-76
2022/12/22 08:59:10;;;;;;;53.53;28.98;;;;;;;2.26;74.69;99755.44;5083396;28;20028;-76
2022/12/22 09:01:38;;;;;;;45.70;26.42;;;;;;;2.31;73.70;99747.19;5087748;28;20027;-76
2022/12/22 09:04:05;;;;;;;54.35;30.02;;;;;;;2.64;73.72;99750.53;5088681;28;20020;-77
2022/12/22 09:06:31;;;;;;;44.08;27.13;;;;;;;2.89;73.43;99745.28;5077421;28;20016;-76
2022/12/22 09:09:03;;;;;;;66.60;42.28;;;;;;;2.86;71.69;99741.13;5068001;28;20070;-76
2022/12/22 09:11:29;;;;;;;51.15;33.95;;;;;;;2.62;73.08;99738.09;5076196;28;20047;-76
2022/12/22 09:13:57;;;;;;;42.65;25.27;;;;;;;2.85;72.05;99728.44;5075738;28;20557;-76
2022/12/22 09:16:25;;;;;;;49.15;27.88;;;;;;;3.20;71.51;99740.56;5090052;28;20056;-76
2022/12/22 09:18:51;;;;;;;39.70;24.98;;;;;;;3.23;69.63;99736.41;5087880;28;20024;-75
2022/12/22 09:21:17;;;;;;;35.00;21.23;;;;;;;3.31;69.02;99730.28;5069774;28;20040;-75
2022/12/22 09:23:43;;;;;;;36.80;22.70;;;;;;;3.47;69.00;99733.03;5073502;28;20032;-75
2022/12/22 09:26:11;;;;;;;59.58;29.52;;;;;;;3.65;67.78;99734.34;5087976;28;20024;-76
2022/12/22 09:28:37;;;;;;;61.42;32.28;;;;;;;3.45;68.24;99727.78;5081305;28;20077;-75
2022/12/22 09:31:03;;;;;;;60.15;28.95;;;;;;;3.49;68.13;99722.50;5072545;28;20032;-75
2022/12/22 09:33:29;;;;;;;57.40;30.33;;;;;;;3.91;67.08;99714.88;5079579;28;20461;-76
2022/12/22 09:35:55;;;;;;;47.25;28.15;;;;;;;3.93;66.43;99719.03;5077399;28;20031;-76
2022/12/22 09:38:20;;;;;;;48.22;28.45;;;;;;;3.87;67.11;99711.03;5090063;28;20024;-77
2022/12/22 09:40:46;;;;;;;49.20;28.65;;;;;;;3.81;67.91;99710.22;5083519;28;20024;-76
2022/12/22 09:43:15;;;;;;;52.72;29.38;;;;;;;3.92;67.20;99720.13;5087456;28;20351;-77
2022/12/22 09:45:41;;;;;;;53.63;31.30;;;;;;;3.83;68.71;99715.47;5079294;28;20023;-76
2022/12/22 09:48:11;;;;;;;52.10;30.25;;;;;;;3.99;67.87;99708.75;5082138;28;20042;-75
2022/12/22 09:50:38;;;;;;;57.63;32.88;;;;;;;3.36;68.90;99704.56;5086137;28;20032;-73
2022/12/22 09:53:05;;;;;;;58.83;30.50;;;;;;;3.42;69.07;99697.91;5074344;28;20497;-73
2022/12/22 09:55:38;;;;;;;51.08;30.00;;;;;;;3.83;68.92;99696.09;5079061;28;20032;-73
2022/12/22 09:58:14;;;;;;;52.17;30.55;;;;;;;4.27;66.71;99688.91;5074479;28;20048;-72
2022/12/22 10:00:40;;;;;;;55.28;32.22;;;;;;;4.44;66.57;99682.97;5074643;28;20487;-73
2022/12/22 10:03:32;;;;;;;51.47;31.25;;;;;;;4.38;65.55;99684.13;5080995;28;20051;-72
2022/12/22 10:06:09;;;;;;;58.05;32.97;;;;;;;4.53;64.28;99672.94;5078826;28;20032;-71
2022/12/22 10:08:36;;;;;;;45.95;29.42;;;;;;;4.72;63.75;99677.78;5087282;28;20032;-71
2022/12/22 10:11:02;;;;;;;49.20;27.65;;;;;;;4.77;62.52;99672.19;5077886;28;20107;-73
2022/12/22 10:13:28;;;;;;;42.30;26.08;;;;;;;4.72;61.54;99667.50;5083650;28;20138;-75
2022/12/22 10:15:54;;;;;;;38.30;23.02;;;;;;;4.55;60.87;99662.38;5082817;28;20055;-73
2022/12/22 10:18:28;;;;;;;41.65;25.17;;;;;;;3.70;63.53;99661.59;5077787;28;20032;-74
2022/12/22 10:21:13;;;;;;;43.58;26.98;;;;;;;4.00;65.55;99657.81;5076543;28;20035;-72
2022/12/22 10:23:46;;;;;;;44.97;26.83;;;;;;;4.40;65.61;99654.22;5084274;28;20032;-75
2022/12/22 10:26:12;;;;;;;44.35;27.90;;;;;;;4.35;63.99;99647.59;5081999;28;20039;-75
2022/12/22 10:28:42;;;;;;;42.45;26.08;;;;;;;4.58;64.43;99638.81;5074738;28;20033;-76
2022/12/22 10:31:13;;;;;;;44.72;26.20;;;;;;;4.89;62.80;99639.34;5077736;28;20081;-72
2022/12/22 10:33:39;;;;;;;47.15;27.25;;;;;;;5.11;63.33;99632.47;5080331;28;20032;-73
2022/12/22 10:36:06;;;;;;;44.72;25.95;;;;;;;5.20;62.22;99627.94;5076054;28;20021;-73
2022/12/22 10:38:34;;;;;;;41.33;25.05;;;;;;;5.32;62.12;99619.19;5067976;28;20070;-76
2022/12/22 10:41:17;;;;;;;44.80;28.88;;;;;;;5.23;62.79;99620.13;5076083;28;20032;-76
2022/12/22 10:43:59;;;;;;;44.20;26.38;;;;;;;5.31;61.90;99609.22;5074744;28;20057;-76
2022/12/22 10:46:47;;;;;;;48.83;28.13;;;;;;;5.09;64.54;99609.75;5086114;28;20526;-74
2022/12/22 10:49:16;;;;;;;42.10;24.90;;;;;;;5.16;63.97;99601.91;5087725;28;20079;-74
2022/12/22 10:51:44;;;;;;;50.55;29.98;;;;;;;5.25;64.21;99604.03;5088904;28;20423;-73
2022/12/22 10:54:23;;;;;;;135.05;61.25;;;;;;;5.31;63.88;99602.84;5087117;28;20035;-73
2022/12/22 10:56:58;;;;;;;103.53;48.28;;;;;;;5.32;63.37;99588.66;5081700;28;20089;-73
2022/12/22 10:59:24;;;;;;;55.63;28.73;;;;;;;5.44;61.83;99591.03;5079897;28;20025;-75
2022/12/22 11:01:49;;;;;;;51.92;27.67;;;;;;;5.25;62.64;99584.63;5084964;28;20486;-73
2022/12/22 11:04:26;;;;;;;46.40;29.00;;;;;;;5.29;63.48;99577.34;5084665;28;20491;-77
2022/12/22 11:06:53;;;;;;;46.80;28.33;;;;;;;5.32;62.15;99566.47;5082225;28;20420;-76
2022/12/22 11:09:20;;;;;;;55.72;32.38;;;;;;;5.37;61.15;99570.31;5083104;28;20119;-77
2022/12/22 11:11:51;;;;;;;51.78;27.25;;;;;;;5.33;61.48;99553.44;5083437;28;20588;-78
2022/12/22 11:14:38;;;;;;;54.83;30.33;;;;;;;5.29;61.84;99547.66;5088028;28;20032;-74
2022/12/22 11:17:36;;;;;;;237.30;121.82;;;;;;;5.37;61.94;99554.50;5077130;28;20398;-78
2022/12/22 11:20:32;;;;;;;112.47;64.75;;;;;;;5.36;61.94;99552.84;5089268;28;20067;-75
2022/12/22 11:23:33;;;;;;;68.22;44.58;;;;;;;5.61;61.82;99542.50;5086871;28;20032;-75
2022/12/22 11:26:10;;;;;;;89.20;57.55;;;;;;;5.45;60.68;99551.06;5066800;28;20036;-75
2022/12/22 11:28:47;;;;;;;47.80;28.05;;;;;;;5.50;61.24;99546.56;5089222;28;20429;-79
2022/12/22 11:31:33;;;;;;;113.70;51.72;;;;;;;5.70;62.08;99550.97;5082451;28;20058;-75
2022/12/22 11:34:24;;;;;;;57.42;31.00;;;;;;;5.88;60.89;99541.00;5083396;28;20033;-75
2022/12/22 11:37:00;;;;;;;52.53;31.23;;;;;;;5.93;59.61;99542.88;5093334;28;20036;-76
2022/12/22 11:39:38;;;;;;;64.38;33.05;;;;;;;5.86;57.87;99546.03;5088937;28;20025;-77
2022/12/22 11:42:03;;;;;;;61.55;30.05;;;;;;;5.95;57.67;99541.44;5083006;28;20024;-74
2022/12/22 11:45:07;;;;;;;92.05;44.50;;;;;;;5.86;59.64;99537.69;5088905;28;20085;-75
2022/12/22 11:47:35;;;;;;;63.08;30.85;;;;;;;5.92;59.52;99535.66;5082416;28;20563;-75
2022/12/22 11:50:22;;;;;;;42.72;24.67;;;;;;;5.83;59.13;99529.97;5085480;28;20055;-74
2022/12/22 11:53:18;;;;;;;42.92;23.92;;;;;;;5.93;59.71;99528.97;5092199;28;20146;-75
2022/12/22 11:56:15;;;;;;;51.97;28.92;;;;;;;5.95;60.17;99527.56;5089238;28;20082;-74
2022/12/22 11:58:50;;;;;;;39.97;23.55;;;;;;;5.94;59.91;99519.53;5083567;28;20089;-74
2022/12/22 12:01:42;;;;;;;41.95;22.85;;;;;;;5.99;61.07;99519.47;5086865;28;20024;-72
2022/12/22 12:04:21;;;;;;;39.92;23.52;;;;;;;5.87;61.84;99525.47;5080004;28;20024;-72
2022/12/22 12:07:04;;;;;;;38.60;21.85;;;;;;;5.88;61.36;99507.69;5092703;28;20027;-73
2022/12/22 12:09:47;;;;;;;42.47;23.60;;;;;;;5.92;60.80;99517.06;5087259;28;20119;-76
2022/12/22 12:12:29;;;;;;;41.78;19.98;;;;;;;5.87;60.15;99504.09;5089561;28;20031;-77
2022/12/22 12:15:04;;;;;;;35.25;22.02;;;;;;;6.01;60.10;99511.66;5083282;28;20031;-77
2022/12/22 12:18:20;;;;;;;52.45;26.05;;;;;;;6.03;60.83;99507.47;5089835;28;20028;-77
2022/12/22 12:21:04;;;;;;;44.00;24.20;;;;;;;5.92;60.55;99508.75;5085647;28;20418;-77
2022/12/22 12:23:47;;;;;;;33.10;20.77;;;;;;;6.02;60.17;99516.09;5087816;28;20020;-77
2022/12/22 12:26:21;;;;;;;42.47;24.33;;;;;;;6.09;60.26;99508.19;5091922;28;20097;-76
2022/12/22 12:29:15;;;;;;;38.22;22.75;;;;;;;6.08;59.72;99503.75;5085294;28;20031;-77
2022/12/22 12:31:49;;;;;;;43.25;22.92;;;;;;;6.10;60.09;99507.09;5085510;28;20444;-78
2022/12/22 12:34:17;;;;;;;39.05;23.30;;;;;;;6.10;59.13;99498.75;5088561;28;20036;-76
2022/12/22 12:36:49;;;;;;;37.20;21.20;;;;;;;6.04;59.71;99508.28;5089074;28;20034;-77
2022/12/22 12:39:23;;;;;;;41.42;23.90;;;;;;;6.07;60.42;99501.31;5088353;28;20035;-75
2022/12/22 12:42:11;;;;;;;39.90;23.15;;;;;;;5.99;60.79;99500.81;5088711;28;20558;-75
2022/12/22 12:44:37;;;;;;;40.47;22.45;;;;;;;6.02;60.06;99499.44;5089500;28;20077;-74
2022/12/22 12:47:06;;;;;;;41.95;23.17;;;;;;;6.07;60.35;99506.84;5088184;28;20020;-75
2022/12/22 12:49:37;;;;;;;37.08;22.60;;;;;;;6.05;60.59;99509.94;5090296;28;20073;-73
2022/12/22 12:52:04;;;;;;;38.28;21.33;;;;;;;6.02;59.91;99508.56;5083838;28;20024;-75
2022/12/22 12:54:37;;;;;;;32.38;19.70;;;;;;;5.85;61.05;99506.34;5084897;28;20043;-75
2022/12/22 12:57:05;;;;;;;30.83;17.75;;;;;;;5.93;60.03;99510.38;5086310;28;20832;-74
2022/12/22 12:59:40;;;;;;;31.80;18.67;;;;;;;5.84;59.55;99506.66;5089400;28;20081;-75
2022/12/22 13:02:28;;;;;;;31.58;16.85;;;;;;;5.73;59.92;99511.50;5081969;28;20024;-74
2022/12/22 13:05:02;;;;;;;32.65;16.85;;;;;;;5.78;59.97;99516.16;5085967;28;20022;-75
2022/12/22 13:08:06;;;;;;;32.65;18.40;;;;;;;5.87;60.12;99517.97;5088883;28;20013;-77
2022/12/22 13:10:34;;;;;;;29.48;17.48;;;;;;;5.70;61.19;99510.19;5085027;28;20031;-76
2022/12/22 13:13:00;;;;;;;29.50;17.00;;;;;;;5.68;60.93;99515.22;5085885;28;20103;-76
2022/12/22 13:15:30;;;;;;;30.23;17.48;;;;;;;5.59;60.38;99511.47;5090931;28;20131;-77
2022/12/22 13:17:56;;;;;;;;;;;;;;;5.52;60.62;99517.41;5090941;28;20047;-76
2022/12/22 13:20:36;;;;;;;38.65;19.08;;;;;;;5.52;60.00;99509.06;5102975;27;20362;-75
2022/12/22 13:23:09;;;;;;;30.58;18.55;;;;;;;5.46;60.09;99510.25;5089585;28;20055;-76
2022/12/22 13:25:44;;;;;;;41.72;23.02;;;;;;;5.60;58.90;99507.56;5090315;28;20032;-75
2022/12/22 13:28:14;;;;;;;32.65;19.15;;;;;;;5.64;57.95;99519.69;5084570;28;20051;-70
2022/12/22 13:30:46;;;;;;;40.28;22.88;;;;;;;5.64;56.96;99513.34;5092521;28;20375;-73
2022/12/22 13:33:18;;;;;;;42.25;22.23;;;;;;;5.64;57.63;99514.16;5088342;28;20118;-74
2022/12/22 13:35:46;;;;;;;37.63;21.42;;;;;;;5.60;58.67;99510.34;5087573;28;20100;-73
2022/12/22 13:38:44;;;;;;;42.20;24.65;;;;;;;5.60;59.24;99507.56;5083286;28;20031;-75
2022/12/22 13:41:18;;;;;;;39.47;23.20;;;;;;;5.71;57.86;99506.28;5052582;28;20035;-76
2022/12/22 13:43:52;;;;;;;46.10;26.25;;;;;;;5.75;58.87;99507.31;5089104;28;20032;-73
2022/12/22 13:46:18;;;;;;;47.33;27.73;;;;;;;5.67;60.13;99504.41;5085112;28;20390;-72
2022/12/22 13:48:47;;;;;;;58.17;32.25;;;;;;;5.71;60.24;99506.28;5085257;28;20024;-75
2022/12/22 13:51:36;;;;;;;63.03;32.63;;;;;;;5.79;60.74;99501.16;5089169;28;20166;-76
2022/12/22 13:54:07;;;;;;;96.23;33.27;;;;;;;5.78;61.19;99497.56;5088289;28;20099;-78
2022/12/22 13:56:40;;;;;;;60.75;30.98;;;;;;;5.86;61.30;99504.38;5086554;28;20077;-75
2022/12/22 13:59:16;;;;;;;56.83;32.10;;;;;;;5.74;61.87;99502.91;5084451;28;20486;-73
2022/12/22 14:01:49;;;;;;;58.58;32.97;;;;;;;5.57;62.96;99500.66;5085419;28;20465;-73
2022/12/22 14:04:15;;;;;;;68.65;36.80;;;;;;;5.62;63.29;99496.97;5085379;28;20039;-72
2022/12/22 14:06:40;;;;;;;68.22;35.92;;;;;;;5.64;62.75;99494.72;5089652;28;20012;-74
2022/12/22 14:09:24;;;;;;;61.92;35.63;;;;;;;5.67;62.09;99502.47;5084860;28;20475;-74
2022/12/22 14:12:01;;;;;;;64.55;38.00;;;;;;;5.57;62.91;99497.88;5080440;28;20130;-75
2022/12/22 14:14:37;;;;;;;163.10;46.67;;;;;;;5.54;63.83;99492.09;5079523;28;20108;-74
2022/12/22 14:17:04;;;;;;;64.63;35.65;;;;;;;5.47;64.95;99492.47;5081393;28;20533;-76
2022/12/22 14:19:34;;;;;;;68.28;34.40;;;;;;;5.57;65.01;99492.34;5085139;28;20205;-79
2022/12/22 14:22:14;;;;;;;70.88;36.42;;;;;;;5.28;66.65;99482.22;5087674;28;20117;-76
2022/12/22 14:24:53;;;;;;;63.80;35.15;;;;;;;5.22;67.29;99497.28;5086728;28;20115;-75
2022/12/22 14:27:34;;;;;;;71.00;34.90;;;;;;;5.18;66.80;99490.69;5075564;28;20574;-74
2022/12/22 14:30:03;;;;;;;72.68;37.72;;;;;;;5.14;67.19;99492.41;5082609;28;20038;-75
2022/12/22 14:32:44;;;;;;;71.57;36.90;;;;;;;4.99;67.30;99490.66;5081584;28;20025;-75
2022/12/22 14:35:16;;;;;;;75.57;37.53;;;;;;;4.96;67.43;99494.03;5080917;28;21036;-75
2022/12/22 14:37:41;;;;;;;83.65;38.90;;;;;;;4.83;68.28;99488.09;5079565;28;20103;-77
2022/12/22 14:40:27;;;;;;;105.18;51.83;;;;;;;4.84;68.01;99486.97;5082200;28;20028;-73
2022/12/22 14:42:58;;;;;;;88.88;44.95;;;;;;;4.78;69.15;99483.44;5082505;28;20042;-70
2022/12/22 14:45:23;;;;;;;101.35;47.40;;;;;;;4.85;68.98;99487.78;5089454;28;20028;-70
2022/12/22 14:47:51;;;;;;;84.55;44.83;;;;;;;4.92;68.39;99489.06;5081387;28;20024;-73
2022/12/22 14:50:19;;;;;;;68.40;37.88;;;;;;;4.93;68.26;99495.44;5087986;28;20036;-70
2022/12/22 14:52:57;;;;;;;75.40;38.50;;;;;;;4.92;68.61;99494.59;5093706;28;20043;-72
2022/12/22 14:55:33;;;;;;;71.97;39.33;;;;;;;4.99;67.97;99497.03;5092927;28;20040;-72
2022/12/22 14:58:02;;;;;;;74.63;35.97;;;;;;;4.90;67.77;99490.50;5081921;28;20142;-73
2022/12/22 15:00:38;;;;;;;63.20;37.42;;;;;;;4.79;68.35;99500.88;5094208;28;20024;-73
2022/12/22 15:03:23;;;;;;;69.97;37.63;;;;;;;4.83;68.54;99495.56;5090313;28;20032;-77
2022/12/22 15:05:50;;;;;;;67.75;37.33;;;;;;;4.77;68.36;99495.66;5090025;28;20051;-71
2022/12/22 15:08:39;;;;;;;82.43;38.30;;;;;;;4.71;68.44;99507.09;5085745;28;20039;-72
2022/12/22 15:11:15;;;;;;;83.10;40.25;;;;;;;4.71;68.64;99502.34;5090592;28;20077;-77
2022/12/22 15:13:42;;;;;;;73.47;39.72;;;;;;;4.63;68.44;99501.06;5085349;28;20063;-73